Terminal Aerodrome Forecast
Issued by NWS Charleston, WV

Current Version | Previous Version | Text Only | Print | Product List | Glossary Off
Versions: 1 2 3 4 5 6 7 8 9 10 11 12 13 14 15 16 17 18 19 20 21 22 23

000
FTUS41 KRLX 210200 AAA
TAFEKN
TAF AMD
KEKN 210255Z 2103/2124 00000KT P6SM BKN025
     FM210700 00000KT 6SM BR BKN025
     FM211000 00000KT 4SM BR BKN010
     FM211400 00000KT P6SM BKN010
     FM211600 00000KT P6SM BKN015
     FM211800 00000KT P6SM BKN025
     FM212000 00000KT P6SM SCT015=

USA.gov is the U.S. government's official web portal to all federal, state and local government web resources and services.